Date,TemperatureHighF,TemperatureAvgF,TemperatureLowF,DewpointHighF,DewpointAvgF,DewpointLowF,HumidityHigh,HumidityAvg,HumidityLow,PressureMaxIn,PressureMinIn,WindSpeedMaxMPH,WindSpeedAvgMPH,GustSpeedMaxMPH,PrecipitationSumIn
2013-1-1,31,22,11,26,13,5,83,70,56,29.98,29.85,11,1,11,0.00
2013-1-2,29,18,7,20,12,3,88,78,66,30.04,29.91,6,1,6,0.00
2013-1-3,29,23,13,24,16,6,83,75,62,30.02,29.91,10,3,10,0.00
2013-1-4,29,25,20,22,18,15,81,74,65,30.03,29.92,14,6,16,0.00
2013-1-5,36,28,18,29,22,14,87,79,66,30.12,29.88,10,3,10,0.01
2013-1-6,38,34,31,32,29,26,86,82,74,30.10,29.76,12,3,12,0.02
2013-1-7,36,31,26,27,25,21,83,77,67,30.23,29.99,13,3,13,0.00
2013-1-8,43,31,23,32,25,20,85,77,61,30.10,30.00,6,2,8,0.00
2013-1-9,46,38,27,35,30,21,87,72,54,30.30,29.89,16,4,16,0.00
2013-1-10,40,31,23,33,27,19,91,84,71,30.39,29.98,9,2,9,0.04
2013-1-11,60,46,35,54,43,32,95,87,75,29.98,29.59,11,3,11,0.68
2013-1-12,62,53,47,53,48,44,94,85,71,29.79,29.62,9,2,9,0.21
2013-1-13,52,41,33,51,39,29,96,92,86,29.88,29.55,15,2,15,2.02
2013-1-14,33,26,18,29,20,15,89,77,66,30.26,29.88,11,2,11,0.00
2013-1-15,31,23,14,22,17,10,91,79,65,30.26,29.96,7,1,7,0.00
2013-1-16,37,30,21,26,22,18,88,73,50,29.96,29.68,15,3,15,0.00
2013-1-17,41,32,20,28,22,8,89,69,47,30.14,29.81,10,3,10,0.00
2013-1-18,36,29,20,24,19,10,79,65,56,30.27,29.84,13,4,13,0.00
2013-1-19,50,42,35,35,29,24,70,59,49,29.84,29.47,16,7,17,0.00
2013-1-20,44,26,19,35,13,6,71,58,47,30.01,29.47,14,5,17,0.00
2013-1-21,22,17,8,11,7,0,83,65,54,29.98,29.79,13,4,14,0.00
2013-1-22,14,7,0,5,-2,-9,82,68,57,30.13,29.93,9,2,10,0.00
2013-1-23,22,13,1,11,4,-6,81,68,50,30.12,29.89,9,2,9,0.00
2013-1-24,22,14,9,12,5,-2,85,68,37,30.40,29.91,8,2,8,0.01
2013-1-25,27,20,16,18,13,8,82,72,66,30.31,29.83,5,1,5,0.00
2013-1-26,29,24,15,20,16,9,86,74,53,30.27,29.87,8,2,8,0.01
2013-1-27,34,24,11,27,18,7,90,78,60,30.30,29.96,11,2,11,0.00
2013-1-28,50,42,32,47,40,27,94,90,80,29.96,29.70,12,4,12,0.12
2013-1-29,59,49,35,56,47,34,96,92,86,29.85,29.32,10,3,10,0.28
2013-1-30,62,52,34,57,48,27,92,87,76,29.32,28.98,17,5,17,0.57
2013-1-31,34,24,17,26,15,7,84,69,55,29.73,29.14,19,7,19,0.00
2013-2-1,17,15,13,10,9,8,81,77,74,29.95,29.73,14,5,14,0.00